createdAt,value
2022-11-17T00:00:56.027Z,4.35
2022-11-17T00:01:58.378Z,4.52
2022-11-17T00:03:00.572Z,4.49
2022-11-17T00:04:02.747Z,4.42
2022-11-17T00:05:05.293Z,4.34
2022-11-17T00:06:07.424Z,4.51
2022-11-17T00:07:09.659Z,4.51
2022-11-17T00:08:12.006Z,4.56
2022-11-17T00:09:17.468Z,4.55
2022-11-17T00:10:20.054Z,4.61
2022-11-17T00:11:22.301Z,4.77
2022-11-17T00:12:43.302Z,4.48
2022-11-17T00:14:04.036Z,4.25
2022-11-17T00:15:06.769Z,4.32
2022-11-17T00:16:13.718Z,4.39
2022-11-17T00:17:15.876Z,4.39
2022-11-17T00:18:36.856Z,4.53
2022-11-17T00:19:58.925Z,4.33
2022-11-17T00:21:19.269Z,4.34
2022-11-17T00:22:21.940Z,4.15
2022-11-17T00:23:47.047Z,4.26
2022-11-17T00:24:50.241Z,4.11
2022-11-17T00:25:55.374Z,4.18
2022-11-17T00:27:06.263Z,4.13
2022-11-17T00:28:08.416Z,4.10
2022-11-17T00:29:10.557Z,3.92
2022-11-17T00:30:33.163Z,3.89
2022-11-17T00:31:53.673Z,3.82
2022-11-17T00:33:19.309Z,3.82
2022-11-17T00:34:23.385Z,4.00
2022-11-17T00:35:28.299Z,4.20
2022-11-17T00:36:31.471Z,4.19
2022-11-17T00:37:37.373Z,4.03
2022-11-17T00:38:39.734Z,4.13
2022-11-17T00:39:41.916Z,4.21
2022-11-17T00:40:44.354Z,4.17
2022-11-17T00:41:47.054Z,4.05
2022-11-17T00:42:49.275Z,4.28
2022-11-17T00:43:51.626Z,4.16
2022-11-17T00:44:53.764Z,4.31
2022-11-17T00:45:56.094Z,4.42
2022-11-17T00:46:58.433Z,4.39
2022-11-17T00:48:00.636Z,4.34
2022-11-17T00:49:03.927Z,4.40
2022-11-17T00:50:06.526Z,4.40
2022-11-17T00:51:08.868Z,4.16
2022-11-17T00:52:11.312Z,4.25
2022-11-17T00:53:13.453Z,4.10
2022-11-17T00:54:15.917Z,4.04
2022-11-17T00:55:18.106Z,4.11
2022-11-17T00:56:20.500Z,4.14
2022-11-17T00:57:22.821Z,4.04
2022-11-17T00:58:24.957Z,4.17
2022-11-17T00:59:27.314Z,4.23
2022-11-17T01:00:29.507Z,4.33
2022-11-17T01:01:34.878Z,4.08
2022-11-17T01:02:37.339Z,3.90
2022-11-17T01:03:39.528Z,4.07
2022-11-17T01:04:41.858Z,4.19
2022-11-17T01:05:43.988Z,4.14
2022-11-17T01:06:48.586Z,3.99
2022-11-17T01:07:53.029Z,4.01
2022-11-17T01:08:55.178Z,3.97
2022-11-17T01:09:57.411Z,3.88
2022-11-17T01:11:19.779Z,3.93
2022-11-17T01:12:22.190Z,3.98
2022-11-17T01:13:24.435Z,4.14
2022-11-17T01:14:34.014Z,4.17
2022-11-17T01:15:36.232Z,3.91
2022-11-17T01:16:38.559Z,4.05
2022-11-17T01:17:41.033Z,4.29
2022-11-17T01:18:45.811Z,4.43
2022-11-17T01:19:49.066Z,4.21
2022-11-17T01:20:51.224Z,4.01
2022-11-17T01:21:53.489Z,4.05
2022-11-17T01:22:58.832Z,4.28
2022-11-17T01:24:02.003Z,4.32
2022-11-17T01:25:05.033Z,4.31
2022-11-17T01:26:10.373Z,4.12
2022-11-17T01:27:15.038Z,4.03
2022-11-17T01:28:17.239Z,3.89
2022-11-17T01:29:19.427Z,3.98
2022-11-17T01:30:21.725Z,4.10
2022-11-17T01:31:29.643Z,3.93
2022-11-17T01:32:32.160Z,3.95
2022-11-17T01:33:34.978Z,4.04
2022-11-17T01:34:37.452Z,4.07
2022-11-17T01:35:42.338Z,4.23
2022-11-17T01:37:03.553Z,4.31
2022-11-17T01:38:05.974Z,4.22
2022-11-17T01:39:08.107Z,4.20
2022-11-17T01:40:13.477Z,4.14
2022-11-17T01:41:25.729Z,4.19
2022-11-17T01:42:28.237Z,4.04
2022-11-17T01:43:44.563Z,3.96
2022-11-17T01:44:56.014Z,3.91
2022-11-17T01:45:58.568Z,3.87
2022-11-17T01:47:01.374Z,3.79
2022-11-17T01:48:07.210Z,3.95
2022-11-17T01:49:35.755Z,4.17
2022-11-17T01:50:40.528Z,4.13
2022-11-17T01:51:48.595Z,4.18
2022-11-17T01:52:53.867Z,4.15
2022-11-17T01:53:56.328Z,4.03
2022-11-17T01:55:00.484Z,3.80
2022-11-17T01:56:11.072Z,3.78
2022-11-17T01:57:16.254Z,3.83
2022-11-17T01:58:24.523Z,4.08
2022-11-17T01:59:37.380Z,4.28
2022-11-17T02:00:40.356Z,4.38
2022-11-17T02:01:55.799Z,4.28
2022-11-17T02:02:58.806Z,4.40
2022-11-17T02:04:01.069Z,4.21
2022-11-17T02:05:21.928Z,4.35
2022-11-17T02:06:29.795Z,4.38
2022-11-17T02:07:36.404Z,4.13
2022-11-17T02:08:41.462Z,4.10
2022-11-17T02:09:46.805Z,4.22
2022-11-17T02:10:51.894Z,4.19
2022-11-17T02:11:58.496Z,4.23
2022-11-17T02:13:01.453Z,4.16
2022-11-17T02:14:05.511Z,4.04
2022-11-17T02:15:08.316Z,4.14
2022-11-17T02:16:18.245Z,4.23
2022-11-17T02:17:22.062Z,4.16
2022-11-17T02:18:24.492Z,4.08
2022-11-17T02:19:31.976Z,4.12
2022-11-17T02:20:55.751Z,4.03
2022-11-17T02:22:03.838Z,4.01
2022-11-17T02:23:20.697Z,4.12
2022-11-17T02:24:50.240Z,4.11
2022-11-17T02:26:21.621Z,4.13
2022-11-17T02:27:39.112Z,4.15
2022-11-17T02:29:13.724Z,3.86
2022-11-17T02:30:19.282Z,3.94
2022-11-17T02:31:38.310Z,4.02
2022-11-17T02:32:58.753Z,3.78
2022-11-17T02:34:10.196Z,3.89
2022-11-17T02:35:19.763Z,4.05
2022-11-17T02:36:41.420Z,4.21
2022-11-17T02:38:04.836Z,4.05
2022-11-17T02:39:22.519Z,4.04
2022-11-17T02:40:43.028Z,4.11
2022-11-17T02:42:07.203Z,4.42
2022-11-17T02:43:36.521Z,4.09
2022-11-17T02:44:51.113Z,4.13
2022-11-17T02:46:16.925Z,4.29
2022-11-17T02:47:25.386Z,4.13
2022-11-17T02:48:32.921Z,3.96
2022-11-17T02:49:41.235Z,3.67
2022-11-17T02:50:46.896Z,3.71
2022-11-17T02:51:53.788Z,3.97
2022-11-17T02:52:56.594Z,4.00
2022-11-17T02:54:00.136Z,3.99
2022-11-17T02:55:05.868Z,4.06
2022-11-17T02:56:08.052Z,3.78
2022-11-17T02:57:29.052Z,3.89
2022-11-17T02:58:31.355Z,3.85
2022-11-17T02:59:43.456Z,3.90
2022-11-17T03:01:19.702Z,3.92
2022-11-17T03:02:37.077Z,3.84
2022-11-17T03:04:04.460Z,3.95
2022-11-17T03:05:09.667Z,4.23
2022-11-17T03:06:36.278Z,4.27
2022-11-17T03:07:47.559Z,4.45
2022-11-17T03:09:08.680Z,4.11
2022-11-17T03:10:28.971Z,4.17
2022-11-17T03:11:48.381Z,4.33
2022-11-17T03:13:22.725Z,4.38
2022-11-17T03:14:33.875Z,4.38
2022-11-17T03:16:12.993Z,4.34
2022-11-17T03:17:29.986Z,4.30
2022-11-17T03:18:46.810Z,4.19
2022-11-17T03:20:24.473Z,4.30
2022-11-17T03:21:31.762Z,4.11
2022-11-17T03:22:43.752Z,4.11
2022-11-17T03:24:07.896Z,3.94
2022-11-17T03:25:15.932Z,4.03
2022-11-17T03:26:27.507Z,4.21
2022-11-17T03:27:37.680Z,4.36
2022-11-17T03:28:44.211Z,4.20
2022-11-17T03:29:51.247Z,3.92
2022-11-17T03:30:54.226Z,3.76
2022-11-17T03:32:02.267Z,3.90
2022-11-17T03:33:10.985Z,4.11
2022-11-17T03:34:17.563Z,4.15
2022-11-17T03:35:24.020Z,4.10
2022-11-17T03:36:32.252Z,4.08
2022-11-17T03:37:37.275Z,4.28
2022-11-17T03:38:47.872Z,4.32
2022-11-17T03:39:53.712Z,4.37
2022-11-17T03:41:00.410Z,4.22
2022-11-17T03:42:13.531Z,4.31
2022-11-17T03:43:18.446Z,4.50
2022-11-17T03:44:24.217Z,4.67
2022-11-17T03:45:32.046Z,4.47
2022-11-17T03:46:36.973Z,4.51
2022-11-17T03:47:40.444Z,4.11
2022-11-17T03:48:53.847Z,4.23
2022-11-17T03:50:27.724Z,4.28
2022-11-17T03:51:33.171Z,4.38
2022-11-17T03:52:38.236Z,4.23
2022-11-17T03:53:40.847Z,4.29
2022-11-17T03:54:43.120Z,4.35
2022-11-17T03:55:57.161Z,4.24
2022-11-17T03:57:27.319Z,4.22
2022-11-17T03:58:33.614Z,4.40
2022-11-17T03:59:56.931Z,4.25
2022-11-17T04:01:02.746Z,4.10
2022-11-17T04:02:05.174Z,4.29
2022-11-17T04:03:07.643Z,4.11
2022-11-17T04:04:21.174Z,3.98
2022-11-17T04:05:23.446Z,4.12
2022-11-17T04:06:25.849Z,4.35
2022-11-17T04:07:28.062Z,4.44
2022-11-17T04:08:30.945Z,4.34
2022-11-17T04:09:33.168Z,4.38
2022-11-17T04:10:55.494Z,4.45
2022-11-17T04:12:16.214Z,4.51
2022-11-17T04:13:37.754Z,4.55
2022-11-17T04:14:58.740Z,4.45
2022-11-17T04:16:01.666Z,4.09
2022-11-17T04:17:03.820Z,4.15
2022-11-17T04:18:06.405Z,4.31
2022-11-17T04:19:09.125Z,4.09
2022-11-17T04:20:11.429Z,4.18
2022-11-17T04:21:13.761Z,4.39
2022-11-17T04:22:15.900Z,4.29
2022-11-17T04:23:18.371Z,4.24
2022-11-17T04:24:20.759Z,4.39
2022-11-17T04:25:42.940Z,4.32
2022-11-17T04:27:04.118Z,4.37
2022-11-17T04:28:25.253Z,4.38
2022-11-17T04:29:28.685Z,4.28
2022-11-17T04:30:30.847Z,4.36
2022-11-17T04:31:33.062Z,4.21
2022-11-17T04:32:35.440Z,4.22
2022-11-17T04:33:40.060Z,4.20
2022-11-17T04:34:42.799Z,4.31
2022-11-17T04:35:50.347Z,4.27
2022-11-17T04:36:52.794Z,4.42
2022-11-17T04:37:55.280Z,4.56
2022-11-17T04:38:59.101Z,4.61
2022-11-17T04:40:01.616Z,4.46
2022-11-17T04:41:25.522Z,4.42
2022-11-17T04:42:28.762Z,4.59
2022-11-17T04:43:31.195Z,4.73
2022-11-17T04:44:33.351Z,4.87
2022-11-17T04:45:35.877Z,4.88
2022-11-17T04:46:39.828Z,4.40
2022-11-17T04:47:41.980Z,4.28
2022-11-17T04:48:45.344Z,4.27
2022-11-17T04:49:47.529Z,4.35
2022-11-17T04:50:56.752Z,4.26
2022-11-17T04:51:59.012Z,4.36
2022-11-17T04:53:01.185Z,4.34
2022-11-17T04:54:05.120Z,4.45
2022-11-17T04:55:08.219Z,4.29
2022-11-17T04:56:10.556Z,4.30
2022-11-17T04:57:12.725Z,4.44
2022-11-17T04:58:15.164Z,4.60
2022-11-17T04:59:17.866Z,4.71
2022-11-17T05:00:20.293Z,4.80
2022-11-17T05:01:23.608Z,4.87
2022-11-17T05:02:25.778Z,4.86
2022-11-17T05:03:28.194Z,4.90
2022-11-17T05:04:48.892Z,4.84
2022-11-17T05:05:51.450Z,4.98
2022-11-17T05:06:53.688Z,4.75
2022-11-17T05:07:55.874Z,4.74
2022-11-17T05:08:59.876Z,4.69
2022-11-17T05:10:02.084Z,4.27
2022-11-17T05:11:25.196Z,4.25
2022-11-17T05:12:46.097Z,4.41
2022-11-17T05:13:49.932Z,4.33
2022-11-17T05:14:52.425Z,4.35
2022-11-17T05:16:15.587Z,4.33
2022-11-17T05:17:18.160Z,4.29
2022-11-17T05:18:20.318Z,4.39
2022-11-17T05:19:25.336Z,4.38
2022-11-17T05:20:27.521Z,4.61
2022-11-17T05:21:30.081Z,4.70
2022-11-17T05:22:50.863Z,4.77
2022-11-17T05:23:55.781Z,4.76
2022-11-17T05:24:58.283Z,4.44
2022-11-17T05:26:00.644Z,4.33
2022-11-17T05:27:03.003Z,4.41
2022-11-17T05:28:05.260Z,4.28
2022-11-17T05:29:08.780Z,4.22
2022-11-17T05:30:11.713Z,4.31
2022-11-17T05:31:13.920Z,4.20
2022-11-17T05:32:16.890Z,4.25
2022-11-17T05:33:19.045Z,4.14
2022-11-17T05:34:21.324Z,4.20
2022-11-17T05:35:23.668Z,4.31
2022-11-17T05:36:27.750Z,4.40
2022-11-17T05:37:30.142Z,4.33
2022-11-17T05:38:32.406Z,4.36
2022-11-17T05:39:34.753Z,4.45
2022-11-17T05:40:36.937Z,4.25
2022-11-17T05:41:39.146Z,4.25
2022-11-17T05:42:41.492Z,4.28
2022-11-17T05:43:44.479Z,4.32
2022-11-17T05:44:48.544Z,4.28
2022-11-17T05:45:50.936Z,4.35
2022-11-17T05:46:53.564Z,4.34
2022-11-17T05:47:55.729Z,4.27
2022-11-17T05:48:57.919Z,4.52
2022-11-17T05:50:00.326Z,4.55
2022-11-17T05:51:02.968Z,4.62
2022-11-17T05:52:05.518Z,4.63
2022-11-17T05:53:07.717Z,4.78
2022-11-17T05:54:10.198Z,4.77
2022-11-17T05:55:12.409Z,4.68
2022-11-17T05:56:33.355Z,4.64
2022-11-17T05:57:35.974Z,4.67
2022-11-17T05:58:42.299Z,4.68
2022-11-17T05:59:50.153Z,4.55
2022-11-17T06:00:54.393Z,4.65
2022-11-17T06:02:08.684Z,4.66
2022-11-17T06:03:21.593Z,4.70
2022-11-17T06:04:24.397Z,4.65
2022-11-17T06:05:27.381Z,4.72
2022-11-17T06:06:30.852Z,4.75
2022-11-17T06:07:34.886Z,4.44
2022-11-17T06:08:37.389Z,4.39
2022-11-17T06:09:42.062Z,4.22
2022-11-17T06:10:44.274Z,4.31
2022-11-17T06:11:46.645Z,4.29
2022-11-17T06:12:49.034Z,4.21
2022-11-17T06:13:51.228Z,4.16
2022-11-17T06:14:53.795Z,4.30
2022-11-17T06:15:58.858Z,4.28
2022-11-17T06:17:07.067Z,4.20
2022-11-17T06:18:15.057Z,4.24
2022-11-17T06:19:24.993Z,4.06
2022-11-17T06:20:37.361Z,4.03
2022-11-17T06:22:09.848Z,4.17
2022-11-17T06:23:06.081Z,4.30
2022-11-17T06:24:09.062Z,4.11
2022-11-17T06:25:11.713Z,4.09
2022-11-17T06:26:15.075Z,4.31
2022-11-17T06:27:17.539Z,4.33
2022-11-17T06:28:22.710Z,4.38
2022-11-17T06:29:25.997Z,4.41
2022-11-17T06:30:29.275Z,4.42
2022-11-17T06:31:32.519Z,4.32
2022-11-17T06:32:37.941Z,4.16
2022-11-17T06:33:40.371Z,4.15
2022-11-17T06:34:49.065Z,4.19
2022-11-17T06:35:54.406Z,3.97
2022-11-17T06:36:56.785Z,4.07
2022-11-17T06:38:00.060Z,4.17
2022-11-17T06:39:02.529Z,4.10
2022-11-17T06:40:05.242Z,4.03
2022-11-17T06:41:11.617Z,3.96
2022-11-17T06:42:14.515Z,3.96
2022-11-17T06:43:16.934Z,3.99
2022-11-17T06:44:19.330Z,4.05
2022-11-17T06:45:21.523Z,4.13
2022-11-17T06:46:23.676Z,4.12
2022-11-17T06:47:26.051Z,4.10
2022-11-17T06:48:28.349Z,3.97
2022-11-17T06:49:31.009Z,3.98
2022-11-17T06:50:33.829Z,3.96
2022-11-17T06:51:38.020Z,4.11
2022-11-17T06:52:43.356Z,4.28
2022-11-17T06:53:45.735Z,4.15
2022-11-17T06:54:47.909Z,4.05
2022-11-17T06:56:01.308Z,4.10
2022-11-17T06:57:03.704Z,4.07
2022-11-17T06:58:08.144Z,4.14
2022-11-17T06:59:10.504Z,3.99
2022-11-17T07:00:13.171Z,4.14
2022-11-17T07:01:15.728Z,4.32
2022-11-17T07:02:18.587Z,4.40
2022-11-17T07:03:20.935Z,4.61
2022-11-17T07:04:23.279Z,4.67
2022-11-17T07:05:25.450Z,4.48
2022-11-17T07:06:27.609Z,4.42
2022-11-17T07:07:29.878Z,4.52
2022-11-17T07:08:33.111Z,4.64
2022-11-17T07:09:35.873Z,4.73
2022-11-17T07:10:38.333Z,4.52
2022-11-17T07:11:40.517Z,4.32
2022-11-17T07:12:42.889Z,4.33
2022-11-17T07:13:45.214Z,4.06
2022-11-17T07:14:47.550Z,4.05
2022-11-17T07:15:50.193Z,4.09
2022-11-17T07:16:52.447Z,4.09
2022-11-17T07:17:54.912Z,4.12
2022-11-17T07:18:59.243Z,4.14
2022-11-17T07:20:01.748Z,4.13
2022-11-17T07:21:06.002Z,4.14
2022-11-17T07:22:08.357Z,4.18
2022-11-17T07:23:10.860Z,4.13
2022-11-17T07:24:13.037Z,4.14
2022-11-17T07:25:21.106Z,4.07
2022-11-17T07:26:24.827Z,3.98
2022-11-17T07:27:27.137Z,4.02
2022-11-17T07:28:30.129Z,3.99
2022-11-17T07:29:32.755Z,4.12
2022-11-17T07:30:36.172Z,4.24
2022-11-17T07:31:38.486Z,4.32
2022-11-17T07:32:40.675Z,4.45
2022-11-17T07:33:42.850Z,4.50
2022-11-17T07:34:45.462Z,4.17
2022-11-17T07:35:47.910Z,4.18
2022-11-17T07:36:50.274Z,4.08
2022-11-17T07:37:56.171Z,4.24
2022-11-17T07:38:58.357Z,4.43
2022-11-17T07:40:00.954Z,4.51
2022-11-17T07:41:04.579Z,4.50
2022-11-17T07:42:07.241Z,4.26
2022-11-17T07:43:09.719Z,4.22
2022-11-17T07:44:12.270Z,4.21
2022-11-17T07:45:14.739Z,4.46
2022-11-17T07:46:16.880Z,4.44
2022-11-17T07:47:19.337Z,4.55
2022-11-17T07:48:21.669Z,4.66
2022-11-17T07:49:24.344Z,4.58
2022-11-17T07:50:27.181Z,4.66
2022-11-17T07:51:29.601Z,4.71
2022-11-17T07:52:32.827Z,4.75
2022-11-17T07:53:37.254Z,4.79
2022-11-17T07:54:39.571Z,4.82
2022-11-17T07:55:42.126Z,4.50
2022-11-17T07:56:44.382Z,4.60
2022-11-17T07:57:46.879Z,4.66
2022-11-17T07:58:49.185Z,4.58
2022-11-17T07:59:51.375Z,4.53
2022-11-17T08:00:53.611Z,4.46
2022-11-17T08:01:55.990Z,4.55
2022-11-17T08:03:03.567Z,4.47
2022-11-17T08:04:05.992Z,4.36
2022-11-17T08:05:09.015Z,4.43
2022-11-17T08:06:11.369Z,4.38
2022-11-17T08:07:14.014Z,4.39
2022-11-17T08:08:16.427Z,4.56
2022-11-17T08:09:18.893Z,4.75
2022-11-17T08:10:21.528Z,4.78
2022-11-17T08:11:23.897Z,4.78
2022-11-17T08:12:26.268Z,4.68
2022-11-17T08:13:28.481Z,4.64
2022-11-17T08:14:30.618Z,4.79
2022-11-17T08:15:33.022Z,4.71
2022-11-17T08:16:35.198Z,4.62
2022-11-17T08:17:37.592Z,4.53
2022-11-17T08:18:40.151Z,4.55
2022-11-17T08:19:42.613Z,4.68
2022-11-17T08:20:44.992Z,4.75
2022-11-17T08:21:47.580Z,4.68
2022-11-17T08:22:51.178Z,4.71
2022-11-17T08:23:54.999Z,4.78
2022-11-17T08:24:57.342Z,4.86
2022-11-17T08:26:01.693Z,4.77
2022-11-17T08:27:03.877Z,4.70
2022-11-17T08:28:06.294Z,4.86
2022-11-17T08:29:08.746Z,4.69
2022-11-17T08:30:11.395Z,4.51
2022-11-17T08:31:13.955Z,4.56
2022-11-17T08:32:16.507Z,4.75
2022-11-17T08:33:18.927Z,4.65
2022-11-17T08:34:21.361Z,4.58
2022-11-17T08:35:25.576Z,4.54
2022-11-17T08:36:28.097Z,4.61
2022-11-17T08:37:30.912Z,4.62
2022-11-17T08:38:33.739Z,4.58
2022-11-17T08:39:36.426Z,4.61
2022-11-17T08:40:39.147Z,4.85
2022-11-17T08:41:41.452Z,4.98
2022-11-17T08:42:44.213Z,4.91
2022-11-17T08:43:46.461Z,4.71
2022-11-17T08:44:49.001Z,4.64
2022-11-17T08:45:51.360Z,4.74
2022-11-17T08:46:53.599Z,4.83
2022-11-17T08:47:56.866Z,4.79
2022-11-17T08:49:00.866Z,4.68
2022-11-17T08:50:04.684Z,4.62
2022-11-17T08:51:08.843Z,4.62
2022-11-17T08:52:11.068Z,4.67
2022-11-17T08:53:15.420Z,4.54
2022-11-17T08:54:17.614Z,4.68
2022-11-17T08:55:19.879Z,4.68
2022-11-17T08:56:22.237Z,4.81
2022-11-17T08:57:24.440Z,4.90
2022-11-17T08:58:26.868Z,4.88
2022-11-17T08:59:29.052Z,4.98
2022-11-17T09:00:31.480Z,4.84
2022-11-17T09:01:35.074Z,4.93
2022-11-17T09:02:38.364Z,4.82
2022-11-17T09:03:44.882Z,4.66
2022-11-17T09:04:47.749Z,4.86
2022-11-17T09:05:50.232Z,4.77
2022-11-17T09:06:52.643Z,4.87
2022-11-17T09:07:55.060Z,5.01
2022-11-17T09:08:57.888Z,5.04
2022-11-17T09:10:00.871Z,5.17
2022-11-17T09:11:08.762Z,5.12
2022-11-17T09:12:10.988Z,5.27
2022-11-17T09:13:18.418Z,5.28
2022-11-17T09:14:20.882Z,5.19
2022-11-17T09:15:23.849Z,5.15
2022-11-17T09:16:26.479Z,5.18
2022-11-17T09:17:28.653Z,5.22
2022-11-17T09:18:31.087Z,5.05
2022-11-17T09:19:33.279Z,4.88
2022-11-17T09:20:35.532Z,4.83
2022-11-17T09:21:37.916Z,4.99
2022-11-17T09:22:40.114Z,4.94
2022-11-17T09:23:42.806Z,4.90
2022-11-17T09:24:44.967Z,5.12
2022-11-17T09:25:48.610Z,5.33
2022-11-17T09:26:53.535Z,5.11
2022-11-17T09:27:55.904Z,5.02
2022-11-17T09:29:04.285Z,5.10
2022-11-17T09:30:11.092Z,5.23
2022-11-17T09:31:16.546Z,5.15
2022-11-17T09:32:20.906Z,5.12
2022-11-17T09:33:23.126Z,5.06
2022-11-17T09:34:25.646Z,5.15
2022-11-17T09:35:30.740Z,5.12
2022-11-17T09:36:33.148Z,5.08
2022-11-17T09:37:35.618Z,5.07
2022-11-17T09:38:38.427Z,5.26
2022-11-17T09:39:41.014Z,5.37
2022-11-17T09:40:43.841Z,5.53
2022-11-17T09:41:49.332Z,5.35
2022-11-17T09:42:52.092Z,5.29
2022-11-17T09:44:26.379Z,5.10
2022-11-17T09:45:37.443Z,5.10
2022-11-17T09:46:57.679Z,5.08
2022-11-17T09:48:38.799Z,5.08
2022-11-17T09:49:55.257Z,5.18
2022-11-17T09:51:04.391Z,5.42
2022-11-17T09:52:46.045Z,5.50
2022-11-17T09:53:50.814Z,5.53
2022-11-17T09:55:08.112Z,5.26
2022-11-17T09:56:12.223Z,4.91
2022-11-17T09:57:38.339Z,5.04
2022-11-17T09:58:58.776Z,5.26
2022-11-17T10:00:15.107Z,5.50
2022-11-17T10:01:23.518Z,5.48
2022-11-17T10:02:25.785Z,5.34
2022-11-17T10:03:31.065Z,5.32
2022-11-17T10:04:34.328Z,4.97
2022-11-17T10:05:38.019Z,4.92
2022-11-17T10:06:46.493Z,4.93
2022-11-17T10:07:51.607Z,4.97
2022-11-17T10:09:06.957Z,5.17
2022-11-17T10:10:18.459Z,5.34
2022-11-17T10:11:32.558Z,5.34
2022-11-17T10:12:42.883Z,5.30
2022-11-17T10:13:45.307Z,5.16
2022-11-17T10:14:51.661Z,5.01
2022-11-17T10:15:58.011Z,5.04
2022-11-17T10:17:00.187Z,5.21
2022-11-17T10:18:02.342Z,5.15
2022-11-17T10:19:18.298Z,5.18
2022-11-17T10:20:20.691Z,4.99
2022-11-17T10:21:23.484Z,4.94
2022-11-17T10:22:45.348Z,5.05
2022-11-17T10:23:59.662Z,5.11
2022-11-17T10:25:04.788Z,5.20
2022-11-17T10:26:12.871Z,5.29
2022-11-17T10:27:19.496Z,5.33
2022-11-17T10:28:32.324Z,5.53
2022-11-17T10:29:36.671Z,5.33
2022-11-17T10:30:39.120Z,5.15
2022-11-17T10:31:45.048Z,4.98
2022-11-17T10:32:55.643Z,4.98
2022-11-17T10:33:58.076Z,5.07
2022-11-17T10:35:16.825Z,5.08
2022-11-17T10:36:20.701Z,5.11
2022-11-17T10:37:30.720Z,5.24
2022-11-17T10:38:34.163Z,5.41
2022-11-17T10:39:40.037Z,5.44
2022-11-17T10:40:42.768Z,5.53
2022-11-17T10:41:50.471Z,5.39
2022-11-17T10:43:17.702Z,5.28
2022-11-17T10:44:32.511Z,5.44
2022-11-17T10:45:35.333Z,5.36
2022-11-17T10:47:02.781Z,5.28
2022-11-17T10:48:17.267Z,5.51
2022-11-17T10:49:32.883Z,5.55
2022-11-17T10:50:35.363Z,5.66
2022-11-17T10:51:37.980Z,5.68
2022-11-17T10:52:40.306Z,5.78
2022-11-17T10:53:46.685Z,5.86
2022-11-17T10:54:49.885Z,5.86
2022-11-17T10:56:02.532Z,5.78
2022-11-17T10:57:15.101Z,5.72
2022-11-17T10:58:31.048Z,5.64
2022-11-17T10:59:56.729Z,5.68
2022-11-17T11:01:03.108Z,5.35
2022-11-17T11:02:29.891Z,5.51
2022-11-17T11:03:34.812Z,5.53
2022-11-17T11:04:42.139Z,5.50
2022-11-17T11:05:57.531Z,5.55
2022-11-17T11:07:21.587Z,5.69
2022-11-17T11:08:30.836Z,5.67
2022-11-17T11:09:35.805Z,5.60
2022-11-17T11:10:38.216Z,5.64
2022-11-17T11:11:47.750Z,5.80
2022-11-17T11:13:02.170Z,5.85
2022-11-17T11:14:30.870Z,5.56
2022-11-17T11:15:36.103Z,5.59
2022-11-17T11:16:40.414Z,5.47
2022-11-17T11:17:45.324Z,5.51
2022-11-17T11:18:50.773Z,5.61
2022-11-17T11:19:53.696Z,5.47
2022-11-17T11:21:42.286Z,5.53
2022-11-17T11:22:59.670Z,5.54
2022-11-17T11:24:33.707Z,5.51
2022-11-17T11:25:47.695Z,5.36
2022-11-17T11:27:26.882Z,5.42
2022-11-17T11:29:05.315Z,5.45
2022-11-17T11:30:12.584Z,5.49
2022-11-17T11:31:44.249Z,5.70
2022-11-17T11:32:58.594Z,5.65
2022-11-17T11:34:24.735Z,5.59
2022-11-17T11:35:32.966Z,5.58
2022-11-17T11:36:49.306Z,5.58
2022-11-17T11:38:38.697Z,5.50
2022-11-17T11:40:02.750Z,5.50
2022-11-17T11:41:35.716Z,5.47
2022-11-17T11:42:50.175Z,5.57
2022-11-17T11:44:36.789Z,5.58
2022-11-17T11:45:49.559Z,5.39
2022-11-17T11:47:13.332Z,5.39
2022-11-17T11:48:31.987Z,5.41
2022-11-17T11:49:40.481Z,5.42
2022-11-17T11:50:53.788Z,5.28
2022-11-17T11:51:55.962Z,5.45
2022-11-17T11:53:02.230Z,5.59
2022-11-17T11:54:17.379Z,5.57
2022-11-17T11:55:27.749Z,5.49
2022-11-17T11:56:38.199Z,5.42
2022-11-17T11:57:48.229Z,5.53
2022-11-17T11:59:15.678Z,5.67
2022-11-17T12:00:18.566Z,5.69
2022-11-17T12:01:23.552Z,5.46
2022-11-17T12:02:38.630Z,5.50
2022-11-17T12:03:56.754Z,5.73
2022-11-17T12:05:21.966Z,5.32
2022-11-17T12:06:42.895Z,5.07
2022-11-17T12:08:12.539Z,5.14
2022-11-17T12:09:33.701Z,5.23
2022-11-17T12:10:44.063Z,5.28
2022-11-17T12:12:00.666Z,5.52
2022-11-17T12:13:04.863Z,5.51
2022-11-17T12:14:17.256Z,5.46
2022-11-17T12:15:19.366Z,5.52
2022-11-17T12:16:31.957Z,5.29
2022-11-17T12:17:34.885Z,5.29
2022-11-17T12:18:37.173Z,5.45
2022-11-17T12:19:52.586Z,5.45
2022-11-17T12:21:13.374Z,5.60
2022-11-17T12:22:31.810Z,5.66
2022-11-17T12:23:44.991Z,5.66
2022-11-17T12:24:47.372Z,5.58
2022-11-17T12:25:56.972Z,5.59
2022-11-17T12:27:33.513Z,5.64
2022-11-17T12:28:41.028Z,5.81
2022-11-17T12:29:47.345Z,5.77
2022-11-17T12:30:53.099Z,5.63
2022-11-17T12:31:58.166Z,5.44
2022-11-17T12:33:01.831Z,5.37
2022-11-17T12:34:07.824Z,5.51
2022-11-17T12:35:33.046Z,5.54
2022-11-17T12:36:36.228Z,5.49
2022-11-17T12:37:41.541Z,5.68
2022-11-17T12:38:43.946Z,5.64
2022-11-17T12:39:59.909Z,5.55
2022-11-17T12:41:06.330Z,5.50
2022-11-17T12:42:08.716Z,5.49
2022-11-17T12:43:16.590Z,5.51
2022-11-17T12:44:37.321Z,5.58
2022-11-17T12:46:05.740Z,5.68
2022-11-17T12:47:15.361Z,5.86
2022-11-17T12:48:35.591Z,5.57
2022-11-17T12:49:56.273Z,5.36
2022-11-17T12:51:08.275Z,5.50
2022-11-17T12:52:19.764Z,5.67
2022-11-17T12:53:33.049Z,5.69
2022-11-17T12:54:48.113Z,5.75
2022-11-17T12:55:59.688Z,5.68
2022-11-17T12:57:13.936Z,5.47
2022-11-17T12:58:25.382Z,5.44
2022-11-17T12:59:33.522Z,5.50
2022-11-17T13:00:49.028Z,5.44
2022-11-17T13:02:28.966Z,5.44
2022-11-17T13:04:08.425Z,5.31
2022-11-17T13:05:22.657Z,5.51
2022-11-17T13:06:35.431Z,5.52
2022-11-17T13:07:39.526Z,5.57
2022-11-17T13:09:01.874Z,5.76
2022-11-17T13:10:04.530Z,5.80
2022-11-17T13:11:14.500Z,5.86
2022-11-17T13:12:22.032Z,5.82
2022-11-17T13:13:25.015Z,5.82
2022-11-17T13:14:27.808Z,5.74
2022-11-17T13:15:30.027Z,5.90
2022-11-17T13:16:32.448Z,5.68
2022-11-17T13:17:55.222Z,5.46
2022-11-17T13:18:57.490Z,5.67
2022-11-17T13:20:03.624Z,5.38
2022-11-17T13:21:39.132Z,5.28
2022-11-17T13:22:42.220Z,5.20
2022-11-17T13:23:48.384Z,5.33
2022-11-17T13:24:50.956Z,5.33
2022-11-17T13:26:21.302Z,5.20
2022-11-17T13:27:26.611Z,5.42
2022-11-17T13:28:32.979Z,5.28
2022-11-17T13:29:35.950Z,5.32
2022-11-17T13:30:38.332Z,5.32
2022-11-17T13:31:41.133Z,5.55
2022-11-17T13:32:43.933Z,5.59
2022-11-17T13:34:04.209Z,5.77
2022-11-17T13:35:18.684Z,5.55
2022-11-17T13:36:24.936Z,5.49
2022-11-17T13:37:28.908Z,5.47
2022-11-17T13:38:31.385Z,5.29
2022-11-17T13:39:33.813Z,5.17
2022-11-17T13:40:37.356Z,5.18
2022-11-17T13:41:40.028Z,5.27
2022-11-17T13:42:42.340Z,5.31
2022-11-17T13:43:46.865Z,5.39
2022-11-17T13:44:49.590Z,5.46
2022-11-17T13:45:58.401Z,5.50
2022-11-17T13:47:20.729Z,5.61
2022-11-17T13:48:36.969Z,5.75
2022-11-17T13:49:39.745Z,5.77
2022-11-17T13:50:41.979Z,5.72
2022-11-17T13:51:45.307Z,5.50
2022-11-17T13:52:55.616Z,5.36
2022-11-17T13:54:02.863Z,5.34
2022-11-17T13:55:20.151Z,5.41
2022-11-17T13:56:32.351Z,5.43
2022-11-17T13:57:34.691Z,5.52
2022-11-17T13:58:43.350Z,5.46
2022-11-17T13:59:46.883Z,5.56
2022-11-17T14:00:54.342Z,5.34
2022-11-17T14:02:23.046Z,5.45
2022-11-17T14:03:35.066Z,5.63
2022-11-17T14:04:37.251Z,5.64
2022-11-17T14:05:56.186Z,5.63
2022-11-17T14:07:03.306Z,5.69
2022-11-17T14:08:22.165Z,5.65
2022-11-17T14:09:26.854Z,5.25
2022-11-17T14:10:31.834Z,5.24
2022-11-17T14:11:34.201Z,5.04
2022-11-17T14:12:37.047Z,5.06
2022-11-17T14:13:44.301Z,5.22
2022-11-17T14:14:46.857Z,5.30
2022-11-17T14:15:56.606Z,5.17
2022-11-17T14:17:11.219Z,5.09
2022-11-17T14:18:24.627Z,5.20
2022-11-17T14:19:33.067Z,5.33
2022-11-17T14:20:36.410Z,5.43
2022-11-17T14:21:59.659Z,5.23
2022-11-17T14:23:16.287Z,5.22
2022-11-17T14:24:18.541Z,5.11
2022-11-17T14:25:21.006Z,5.25
2022-11-17T14:26:24.910Z,5.18
2022-11-17T14:27:27.512Z,5.30
2022-11-17T14:28:29.846Z,5.08
2022-11-17T14:29:32.298Z,5.26
2022-11-17T14:30:34.559Z,5.31
2022-11-17T14:31:37.076Z,5.14
2022-11-17T14:32:40.275Z,5.18
2022-11-17T14:33:42.566Z,5.19
2022-11-17T14:34:45.111Z,5.11
2022-11-17T14:35:52.509Z,4.93
2022-11-17T14:36:56.377Z,4.89
2022-11-17T14:38:01.075Z,4.82
2022-11-17T14:39:04.656Z,4.86
2022-11-17T14:40:13.124Z,4.94
2022-11-17T14:41:17.204Z,4.93
2022-11-17T14:42:19.436Z,4.98
2022-11-17T14:43:22.856Z,4.93
2022-11-17T14:44:25.248Z,5.14
2022-11-17T14:45:27.526Z,5.29
2022-11-17T14:46:30.159Z,5.39
2022-11-17T14:47:32.699Z,5.24
2022-11-17T14:48:36.491Z,5.28
2022-11-17T14:49:38.768Z,5.07
2022-11-17T14:50:41.112Z,4.97
2022-11-17T14:51:43.306Z,4.89
2022-11-17T14:52:46.229Z,4.85
2022-11-17T14:53:48.807Z,4.93
2022-11-17T14:54:50.987Z,5.06
2022-11-17T14:55:53.344Z,4.94
2022-11-17T14:56:55.774Z,5.02
2022-11-17T14:57:58.155Z,5.23
2022-11-17T14:59:00.784Z,5.27
2022-11-17T15:00:04.757Z,5.21
2022-11-17T15:01:34.653Z,5.06
2022-11-17T15:02:37.871Z,5.06